sensor_id;sensor_type;location;lat;lon;timestamp;P1;durP1;ratioP1;P2;durP2;ratioP2
77495;SDS011;66600;48.378;9.948;2023-01-25T00:02:14;51.67;;;18.38;;
77495;SDS011;66600;48.378;9.948;2023-01-25T00:04:39;51.33;;;17.65;;
77495;SDS011;66600;48.378;9.948;2023-01-25T00:07:05;48.22;;;16.98;;
77495;SDS011;66600;48.378;9.948;2023-01-25T00:09:30;46.92;;;16.60;;
77495;SDS011;66600;48.378;9.948;2023-01-25T00:11:55;49.95;;;18.10;;
77495;SDS011;66600;48.378;9.948;2023-01-25T00:14:22;48.72;;;17.30;;
77495;SDS011;66600;48.378;9.948;2023-01-25T00:16:48;51.45;;;18.67;;
77495;SDS011;66600;48.378;9.948;2023-01-25T00:19:13;50.28;;;17.98;;
77495;SDS011;66600;48.378;9.948;2023-01-25T00:21:38;53.58;;;18.40;;
77495;SDS011;66600;48.378;9.948;2023-01-25T00:24:04;44.35;;;15.90;;
77495;SDS011;66600;48.378;9.948;2023-01-25T00:26:30;49.97;;;16.88;;
77495;SDS011;66600;48.378;9.948;2023-01-25T00:28:57;43.42;;;16.45;;
77495;SDS011;66600;48.378;9.948;2023-01-25T00:31:26;48.80;;;17.23;;
77495;SDS011;66600;48.378;9.948;2023-01-25T00:37:23;48.10;;;17.73;;
77495;SDS011;66600;48.378;9.948;2023-01-25T00:39:48;47.45;;;17.65;;
77495;SDS011;66600;48.378;9.948;2023-01-25T00:42:14;43.88;;;16.83;;
77495;SDS011;66600;48.378;9.948;2023-01-25T00:44:41;50.45;;;15.32;;
77495;SDS011;66600;48.378;9.948;2023-01-25T00:47:08;56.05;;;18.88;;
77495;SDS011;66600;48.378;9.948;2023-01-25T00:49:34;54.80;;;21.08;;
77495;SDS011;66600;48.378;9.948;2023-01-25T00:51:59;45.88;;;17.10;;
77495;SDS011;66600;48.378;9.948;2023-01-25T00:54:25;41.83;;;15.55;;
77495;SDS011;66600;48.378;9.948;2023-01-25T00:56:50;44.22;;;14.95;;
77495;SDS011;66600;48.378;9.948;2023-01-25T00:59:20;44.17;;;15.38;;
77495;SDS011;66600;48.378;9.948;2023-01-25T01:01:46;48.35;;;18.48;;
77495;SDS011;66600;48.378;9.948;2023-01-25T01:04:12;52.78;;;19.85;;
77495;SDS011;66600;48.378;9.948;2023-01-25T01:06:37;48.42;;;19.23;;
77495;SDS011;66600;48.378;9.948;2023-01-25T01:09:04;47.45;;;19.25;;
77495;SDS011;66600;48.378;9.948;2023-01-25T01:11:31;45.30;;;18.40;;
77495;SDS011;66600;48.378;9.948;2023-01-25T01:13:56;45.00;;;17.52;;
77495;SDS011;66600;48.378;9.948;2023-01-25T01:16:22;46.00;;;17.10;;
77495;SDS011;66600;48.378;9.948;2023-01-25T01:18:48;46.53;;;17.08;;
77495;SDS011;66600;48.378;9.948;2023-01-25T01:21:14;39.03;;;16.85;;
77495;SDS011;66600;48.378;9.948;2023-01-25T01:23:41;44.58;;;17.85;;
77495;SDS011;66600;48.378;9.948;2023-01-25T01:26:07;40.65;;;16.80;;
77495;SDS011;66600;48.378;9.948;2023-01-25T01:28:35;42.78;;;19.08;;
77495;SDS011;66600;48.378;9.948;2023-01-25T01:31:04;42.65;;;17.98;;
77495;SDS011;66600;48.378;9.948;2023-01-25T01:33:32;37.33;;;15.70;;
77495;SDS011;66600;48.378;9.948;2023-01-25T01:35:57;33.20;;;14.73;;
77495;SDS011;66600;48.378;9.948;2023-01-25T01:38:22;40.58;;;16.95;;
77495;SDS011;66600;48.378;9.948;2023-01-25T01:40:48;34.88;;;15.73;;
77495;SDS011;66600;48.378;9.948;2023-01-25T01:43:18;36.63;;;14.95;;
77495;SDS011;66600;48.378;9.948;2023-01-25T01:45:48;38.38;;;14.98;;
77495;SDS011;66600;48.378;9.948;2023-01-25T01:48:20;37.05;;;15.73;;
77495;SDS011;66600;48.378;9.948;2023-01-25T01:50:56;34.70;;;16.30;;
77495;SDS011;66600;48.378;9.948;2023-01-25T01:53:27;37.45;;;15.75;;
77495;SDS011;66600;48.378;9.948;2023-01-25T01:55:55;36.22;;;15.63;;
77495;SDS011;66600;48.378;9.948;2023-01-25T01:58:25;34.10;;;15.07;;
77495;SDS011;66600;48.378;9.948;2023-01-25T02:00:51;41.63;;;16.77;;
77495;SDS011;66600;48.378;9.948;2023-01-25T02:03:16;41.70;;;16.58;;
77495;SDS011;66600;48.378;9.948;2023-01-25T02:08:14;35.40;;;14.43;;
77495;SDS011;66600;48.378;9.948;2023-01-25T02:10:41;33.63;;;14.32;;
77495;SDS011;66600;48.378;9.948;2023-01-25T02:13:08;34.33;;;15.85;;
77495;SDS011;66600;48.378;9.948;2023-01-25T02:15:37;37.72;;;15.60;;
77495;SDS011;66600;48.378;9.948;2023-01-25T02:18:05;35.05;;;14.60;;
77495;SDS011;66600;48.378;9.948;2023-01-25T02:20:34;36.35;;;15.13;;
77495;SDS011;66600;48.378;9.948;2023-01-25T02:23:04;36.50;;;14.68;;
77495;SDS011;66600;48.378;9.948;2023-01-25T02:25:45;33.80;;;14.60;;
77495;SDS011;66600;48.378;9.948;2023-01-25T02:30:40;35.78;;;15.98;;
77495;SDS011;66600;48.378;9.948;2023-01-25T02:33:06;39.97;;;17.17;;
77495;SDS011;66600;48.378;9.948;2023-01-25T02:35:45;35.03;;;15.82;;
77495;SDS011;66600;48.378;9.948;2023-01-25T02:38:17;42.42;;;16.40;;
77495;SDS011;66600;48.378;9.948;2023-01-25T02:40:49;41.10;;;15.50;;
77495;SDS011;66600;48.378;9.948;2023-01-25T02:43:18;47.97;;;17.38;;
77495;SDS011;66600;48.378;9.948;2023-01-25T02:45:45;40.00;;;16.98;;
77495;SDS011;66600;48.378;9.948;2023-01-25T02:48:13;35.70;;;15.25;;
77495;SDS011;66600;48.378;9.948;2023-01-25T02:50:39;37.90;;;17.30;;
77495;SDS011;66600;48.378;9.948;2023-01-25T02:53:04;45.78;;;17.60;;
77495;SDS011;66600;48.378;9.948;2023-01-25T02:55:29;40.60;;;16.85;;
77495;SDS011;66600;48.378;9.948;2023-01-25T02:57:55;44.85;;;18.75;;
77495;SDS011;66600;48.378;9.948;2023-01-25T03:00:20;42.25;;;17.25;;
77495;SDS011;66600;48.378;9.948;2023-01-25T03:02:46;39.05;;;17.13;;
77495;SDS011;66600;48.378;9.948;2023-01-25T03:05:11;36.05;;;15.35;;
77495;SDS011;66600;48.378;9.948;2023-01-25T03:07:36;29.75;;;13.27;;
77495;SDS011;66600;48.378;9.948;2023-01-25T03:10:01;29.95;;;13.48;;
77495;SDS011;66600;48.378;9.948;2023-01-25T03:12:27;30.30;;;12.20;;
77495;SDS011;66600;48.378;9.948;2023-01-25T03:14:52;35.95;;;14.35;;
77495;SDS011;66600;48.378;9.948;2023-01-25T03:17:17;39.50;;;16.23;;
77495;SDS011;66600;48.378;9.948;2023-01-25T03:19:43;40.80;;;16.25;;
77495;SDS011;66600;48.378;9.948;2023-01-25T03:22:08;36.95;;;14.93;;
77495;SDS011;66600;48.378;9.948;2023-01-25T03:24:34;39.65;;;16.65;;
77495;SDS011;66600;48.378;9.948;2023-01-25T03:27:00;38.25;;;15.20;;
77495;SDS011;66600;48.378;9.948;2023-01-25T03:29:34;36.88;;;15.32;;
77495;SDS011;66600;48.378;9.948;2023-01-25T03:32:00;36.25;;;14.45;;
77495;SDS011;66600;48.378;9.948;2023-01-25T03:34:25;29.83;;;11.32;;
77495;SDS011;66600;48.378;9.948;2023-01-25T03:36:51;33.25;;;12.90;;
77495;SDS011;66600;48.378;9.948;2023-01-25T03:39:16;25.13;;;10.73;;
77495;SDS011;66600;48.378;9.948;2023-01-25T03:41:41;25.63;;;9.88;;
77495;SDS011;66600;48.378;9.948;2023-01-25T03:44:07;31.10;;;12.88;;
77495;SDS011;66600;48.378;9.948;2023-01-25T03:46:35;30.97;;;13.17;;
77495;SDS011;66600;48.378;9.948;2023-01-25T03:49:01;30.88;;;13.55;;
77495;SDS011;66600;48.378;9.948;2023-01-25T03:51:26;31.65;;;13.93;;
77495;SDS011;66600;48.378;9.948;2023-01-25T03:53:51;35.50;;;16.23;;
77495;SDS011;66600;48.378;9.948;2023-01-25T03:56:16;36.42;;;14.70;;
77495;SDS011;66600;48.378;9.948;2023-01-25T03:58:44;37.53;;;16.88;;
77495;SDS011;66600;48.378;9.948;2023-01-25T04:01:09;37.42;;;14.38;;
77495;SDS011;66600;48.378;9.948;2023-01-25T04:03:35;39.85;;;15.18;;
77495;SDS011;66600;48.378;9.948;2023-01-25T04:06:00;42.95;;;16.10;;
77495;SDS011;66600;48.378;9.948;2023-01-25T04:08:26;43.55;;;17.10;;
77495;SDS011;66600;48.378;9.948;2023-01-25T04:11:01;42.05;;;17.35;;
77495;SDS011;66600;48.378;9.948;2023-01-25T04:13:30;45.83;;;16.92;;
77495;SDS011;66600;48.378;9.948;2023-01-25T04:15:55;43.13;;;18.23;;
77495;SDS011;66600;48.378;9.948;2023-01-25T04:18:21;39.30;;;16.20;;
77495;SDS011;66600;48.378;9.948;2023-01-25T04:20:56;39.80;;;14.57;;
77495;SDS011;66600;48.378;9.948;2023-01-25T04:23:22;38.50;;;15.07;;
77495;SDS011;66600;48.378;9.948;2023-01-25T04:26:07;30.92;;;13.02;;
77495;SDS011;66600;48.378;9.948;2023-01-25T04:28:36;36.42;;;14.02;;
77495;SDS011;66600;48.378;9.948;2023-01-25T04:31:02;33.60;;;12.40;;
77495;SDS011;66600;48.378;9.948;2023-01-25T04:33:27;37.38;;;14.10;;
77495;SDS011;66600;48.378;9.948;2023-01-25T04:35:53;36.00;;;14.50;;
77495;SDS011;66600;48.378;9.948;2023-01-25T04:38:18;32.17;;;12.70;;
77495;SDS011;66600;48.378;9.948;2023-01-25T04:40:44;34.65;;;13.18;;
77495;SDS011;66600;48.378;9.948;2023-01-25T04:43:12;32.55;;;13.70;;
77495;SDS011;66600;48.378;9.948;2023-01-25T04:45:39;31.90;;;13.68;;
77495;SDS011;66600;48.378;9.948;2023-01-25T04:48:05;40.63;;;14.60;;
77495;SDS011;66600;48.378;9.948;2023-01-25T04:50:35;34.63;;;13.68;;
77495;SDS011;66600;48.378;9.948;2023-01-25T04:53:01;29.02;;;11.63;;
77495;SDS011;66600;48.378;9.948;2023-01-25T04:55:26;31.45;;;12.50;;
77495;SDS011;66600;48.378;9.948;2023-01-25T04:57:52;29.95;;;11.93;;
77495;SDS011;66600;48.378;9.948;2023-01-25T05:00:17;36.42;;;15.23;;
77495;SDS011;66600;48.378;9.948;2023-01-25T05:02:44;30.30;;;11.35;;
77495;SDS011;66600;48.378;9.948;2023-01-25T05:05:09;29.10;;;13.35;;
77495;SDS011;66600;48.378;9.948;2023-01-25T05:07:35;35.35;;;13.65;;
77495;SDS011;66600;48.378;9.948;2023-01-25T05:10:00;38.15;;;15.10;;
77495;SDS011;66600;48.378;9.948;2023-01-25T05:12:25;42.58;;;16.75;;
77495;SDS011;66600;48.378;9.948;2023-01-25T05:14:51;35.05;;;14.20;;
77495;SDS011;66600;48.378;9.948;2023-01-25T05:17:16;36.30;;;13.80;;
77495;SDS011;66600;48.378;9.948;2023-01-25T05:19:41;33.40;;;12.57;;
77495;SDS011;66600;48.378;9.948;2023-01-25T05:22:09;34.20;;;12.25;;
77495;SDS011;66600;48.378;9.948;2023-01-25T05:24:37;35.58;;;13.25;;
77495;SDS011;66600;48.378;9.948;2023-01-25T05:27:06;34.08;;;13.18;;
77495;SDS011;66600;48.378;9.948;2023-01-25T05:29:34;37.83;;;14.05;;
77495;SDS011;66600;48.378;9.948;2023-01-25T05:32:05;46.67;;;18.93;;
77495;SDS011;66600;48.378;9.948;2023-01-25T05:34:32;34.75;;;13.32;;
77495;SDS011;66600;48.378;9.948;2023-01-25T05:36:57;30.80;;;13.70;;
77495;SDS011;66600;48.378;9.948;2023-01-25T05:39:23;36.72;;;13.05;;
77495;SDS011;66600;48.378;9.948;2023-01-25T05:41:48;34.22;;;13.40;;
77495;SDS011;66600;48.378;9.948;2023-01-25T05:44:14;76.25;;;28.35;;
77495;SDS011;66600;48.378;9.948;2023-01-25T05:46:39;54.90;;;19.85;;
77495;SDS011;66600;48.378;9.948;2023-01-25T05:49:05;35.35;;;13.93;;
77495;SDS011;66600;48.378;9.948;2023-01-25T05:51:31;42.15;;;15.98;;
77495;SDS011;66600;48.378;9.948;2023-01-25T05:53:56;40.13;;;13.65;;
77495;SDS011;66600;48.378;9.948;2023-01-25T05:56:22;36.45;;;12.75;;
77495;SDS011;66600;48.378;9.948;2023-01-25T05:58:54;35.25;;;13.82;;
77495;SDS011;66600;48.378;9.948;2023-01-25T06:01:21;41.45;;;16.63;;
77495;SDS011;66600;48.378;9.948;2023-01-25T06:03:46;42.08;;;14.35;;
77495;SDS011;66600;48.378;9.948;2023-01-25T06:06:12;40.35;;;13.40;;
77495;SDS011;66600;48.378;9.948;2023-01-25T06:08:37;37.88;;;14.05;;
77495;SDS011;66600;48.378;9.948;2023-01-25T06:11:13;36.00;;;13.40;;
77495;SDS011;66600;48.378;9.948;2023-01-25T06:13:40;37.85;;;14.35;;
77495;SDS011;66600;48.378;9.948;2023-01-25T06:16:06;48.28;;;18.42;;
77495;SDS011;66600;48.378;9.948;2023-01-25T06:18:33;32.97;;;13.15;;
77495;SDS011;66600;48.378;9.948;2023-01-25T06:20:59;39.42;;;13.13;;
77495;SDS011;66600;48.378;9.948;2023-01-25T06:23:25;37.40;;;13.07;;
77495;SDS011;66600;48.378;9.948;2023-01-25T06:25:51;36.10;;;13.13;;
77495;SDS011;66600;48.378;9.948;2023-01-25T06:28:20;38.67;;;14.88;;
77495;SDS011;66600;48.378;9.948;2023-01-25T06:30:45;39.92;;;15.02;;
77495;SDS011;66600;48.378;9.948;2023-01-25T06:33:11;39.75;;;14.98;;
77495;SDS011;66600;48.378;9.948;2023-01-25T06:35:36;45.00;;;17.40;;
77495;SDS011;66600;48.378;9.948;2023-01-25T06:38:04;46.35;;;16.60;;
77495;SDS011;66600;48.378;9.948;2023-01-25T06:40:29;45.30;;;15.02;;
77495;SDS011;66600;48.378;9.948;2023-01-25T06:42:54;35.25;;;13.23;;
77495;SDS011;66600;48.378;9.948;2023-01-25T06:45:20;39.72;;;14.40;;
77495;SDS011;66600;48.378;9.948;2023-01-25T06:47:47;41.55;;;12.95;;
77495;SDS011;66600;48.378;9.948;2023-01-25T06:50:13;37.60;;;13.82;;
77495;SDS011;66600;48.378;9.948;2023-01-25T06:52:38;37.42;;;13.88;;
77495;SDS011;66600;48.378;9.948;2023-01-25T06:55:04;44.90;;;14.80;;
77495;SDS011;66600;48.378;9.948;2023-01-25T06:57:32;42.55;;;14.98;;
77495;SDS011;66600;48.378;9.948;2023-01-25T06:59:57;42.33;;;15.85;;
77495;SDS011;66600;48.378;9.948;2023-01-25T07:02:22;41.13;;;14.68;;
77495;SDS011;66600;48.378;9.948;2023-01-25T07:04:48;40.53;;;13.80;;
77495;SDS011;66600;48.378;9.948;2023-01-25T07:07:13;37.53;;;12.95;;
77495;SDS011;66600;48.378;9.948;2023-01-25T07:09:39;38.78;;;13.98;;
77495;SDS011;66600;48.378;9.948;2023-01-25T07:12:04;38.85;;;15.25;;
77495;SDS011;66600;48.378;9.948;2023-01-25T07:14:30;42.45;;;15.07;;
77495;SDS011;66600;48.378;9.948;2023-01-25T07:16:56;38.55;;;15.48;;
77495;SDS011;66600;48.378;9.948;2023-01-25T07:19:21;36.67;;;14.00;;
77495;SDS011;66600;48.378;9.948;2023-01-25T07:21:46;41.45;;;16.73;;
77495;SDS011;66600;48.378;9.948;2023-01-25T07:24:12;43.08;;;16.08;;
77495;SDS011;66600;48.378;9.948;2023-01-25T07:26:39;39.30;;;16.48;;
77495;SDS011;66600;48.378;9.948;2023-01-25T07:29:05;47.60;;;18.02;;
77495;SDS011;66600;48.378;9.948;2023-01-25T07:31:30;50.05;;;17.10;;
77495;SDS011;66600;48.378;9.948;2023-01-25T07:33:56;40.70;;;15.68;;
77495;SDS011;66600;48.378;9.948;2023-01-25T07:36:22;49.85;;;16.63;;
77495;SDS011;66600;48.378;9.948;2023-01-25T07:38:51;44.20;;;15.73;;
77495;SDS011;66600;48.378;9.948;2023-01-25T07:41:20;41.35;;;15.68;;
77495;SDS011;66600;48.378;9.948;2023-01-25T07:43:46;44.75;;;15.23;;
77495;SDS011;66600;48.378;9.948;2023-01-25T07:46:12;49.38;;;16.88;;
77495;SDS011;66600;48.378;9.948;2023-01-25T07:48:39;43.10;;;16.25;;
77495;SDS011;66600;48.378;9.948;2023-01-25T07:51:06;37.45;;;13.68;;
77495;SDS011;66600;48.378;9.948;2023-01-25T07:53:35;45.58;;;14.70;;
77495;SDS011;66600;48.378;9.948;2023-01-25T07:58:30;35.47;;;13.13;;
77495;SDS011;66600;48.378;9.948;2023-01-25T08:00:55;42.53;;;14.75;;
77495;SDS011;66600;48.378;9.948;2023-01-25T08:03:20;48.65;;;17.35;;
77495;SDS011;66600;48.378;9.948;2023-01-25T08:05:46;51.38;;;15.77;;
77495;SDS011;66600;48.378;9.948;2023-01-25T08:08:12;44.38;;;15.38;;
77495;SDS011;66600;48.378;9.948;2023-01-25T08:10:38;45.88;;;15.75;;
77495;SDS011;66600;48.378;9.948;2023-01-25T08:13:04;48.78;;;17.05;;
77495;SDS011;66600;48.378;9.948;2023-01-25T08:15:30;40.55;;;14.30;;
77495;SDS011;66600;48.378;9.948;2023-01-25T08:17:59;39.45;;;13.52;;
77495;SDS011;66600;48.378;9.948;2023-01-25T08:20:24;39.58;;;14.18;;
77495;SDS011;66600;48.378;9.948;2023-01-25T08:22:50;36.83;;;13.48;;
77495;SDS011;66600;48.378;9.948;2023-01-25T08:25:16;42.47;;;13.52;;
77495;SDS011;66600;48.378;9.948;2023-01-25T08:27:41;33.15;;;12.48;;
77495;SDS011;66600;48.378;9.948;2023-01-25T08:30:06;37.88;;;12.88;;
77495;SDS011;66600;48.378;9.948;2023-01-25T08:32:33;38.53;;;14.38;;
77495;SDS011;66600;48.378;9.948;2023-01-25T08:34:59;39.30;;;13.75;;
77495;SDS011;66600;48.378;9.948;2023-01-25T08:37:24;34.28;;;12.57;;
77495;SDS011;66600;48.378;9.948;2023-01-25T08:39:53;38.28;;;12.63;;
77495;SDS011;66600;48.378;9.948;2023-01-25T08:42:21;33.17;;;11.98;;
77495;SDS011;66600;48.378;9.948;2023-01-25T08:44:46;28.50;;;10.43;;
77495;SDS011;66600;48.378;9.948;2023-01-25T08:47:12;33.28;;;12.55;;
77495;SDS011;66600;48.378;9.948;2023-01-25T08:49:37;39.08;;;14.68;;
77495;SDS011;66600;48.378;9.948;2023-01-25T08:52:02;44.15;;;14.82;;
77495;SDS011;66600;48.378;9.948;2023-01-25T08:54:28;37.00;;;14.73;;
77495;SDS011;66600;48.378;9.948;2023-01-25T08:56:53;38.63;;;14.02;;
77495;SDS011;66600;48.378;9.948;2023-01-25T08:59:18;35.47;;;12.98;;
77495;SDS011;66600;48.378;9.948;2023-01-25T09:01:44;28.95;;;10.48;;
77495;SDS011;66600;48.378;9.948;2023-01-25T09:04:09;28.52;;;11.82;;
77495;SDS011;66600;48.378;9.948;2023-01-25T09:06:34;28.85;;;10.77;;
77495;SDS011;66600;48.378;9.948;2023-01-25T09:09:00;32.17;;;12.30;;
77495;SDS011;66600;48.378;9.948;2023-01-25T09:11:25;33.10;;;11.73;;
77495;SDS011;66600;48.378;9.948;2023-01-25T09:13:50;37.60;;;12.68;;
77495;SDS011;66600;48.378;9.948;2023-01-25T09:16:17;33.95;;;12.93;;
77495;SDS011;66600;48.378;9.948;2023-01-25T09:18:46;33.92;;;11.25;;
77495;SDS011;66600;48.378;9.948;2023-01-25T09:21:16;35.65;;;12.88;;
77495;SDS011;66600;48.378;9.948;2023-01-25T09:23:43;35.20;;;11.43;;
77495;SDS011;66600;48.378;9.948;2023-01-25T09:26:09;36.53;;;11.65;;
77495;SDS011;66600;48.378;9.948;2023-01-25T09:28:35;51.92;;;13.85;;
77495;SDS011;66600;48.378;9.948;2023-01-25T09:31:02;44.10;;;12.75;;
77495;SDS011;66600;48.378;9.948;2023-01-25T09:33:33;43.73;;;13.17;;
77495;SDS011;66600;48.378;9.948;2023-01-25T09:36:00;36.67;;;12.00;;
77495;SDS011;66600;48.378;9.948;2023-01-25T09:38:26;36.17;;;12.43;;
77495;SDS011;66600;48.378;9.948;2023-01-25T09:40:57;35.53;;;12.50;;
77495;SDS011;66600;48.378;9.948;2023-01-25T09:46:21;38.47;;;12.90;;
77495;SDS011;66600;48.378;9.948;2023-01-25T09:54:46;37.45;;;12.70;;
77495;SDS011;66600;48.378;9.948;2023-01-25T09:57:19;34.65;;;12.50;;
77495;SDS011;66600;48.378;9.948;2023-01-25T09:59:46;37.33;;;11.98;;
77495;SDS011;66600;48.378;9.948;2023-01-25T10:05:04;37.75;;;11.98;;
77495;SDS011;66600;48.378;9.948;2023-01-25T10:10:39;32.80;;;12.45;;
77495;SDS011;66600;48.378;9.948;2023-01-25T10:13:10;34.65;;;11.63;;
77495;SDS011;66600;48.378;9.948;2023-01-25T10:15:46;37.17;;;11.48;;
77495;SDS011;66600;48.378;9.948;2023-01-25T10:21:04;32.60;;;11.00;;
77495;SDS011;66600;48.378;9.948;2023-01-25T10:26:27;35.40;;;12.07;;
77495;SDS011;66600;48.378;9.948;2023-01-25T10:29:04;26.67;;;10.05;;
77495;SDS011;66600;48.378;9.948;2023-01-25T10:31:49;36.55;;;11.07;;
77495;SDS011;66600;48.378;9.948;2023-01-25T10:34:30;37.65;;;12.18;;
77495;SDS011;66600;48.378;9.948;2023-01-25T10:37:03;36.13;;;12.13;;
77495;SDS011;66600;48.378;9.948;2023-01-25T10:39:38;31.63;;;12.30;;
77495;SDS011;66600;48.378;9.948;2023-01-25T10:42:09;40.15;;;13.73;;
77495;SDS011;66600;48.378;9.948;2023-01-25T10:44:38;35.53;;;11.05;;
77495;SDS011;66600;48.378;9.948;2023-01-25T10:47:04;33.22;;;11.63;;
77495;SDS011;66600;48.378;9.948;2023-01-25T10:49:41;31.92;;;11.00;;
77495;SDS011;66600;48.378;9.948;2023-01-25T10:52:11;28.95;;;10.93;;
77495;SDS011;66600;48.378;9.948;2023-01-25T10:54:41;28.40;;;10.65;;
77495;SDS011;66600;48.378;9.948;2023-01-25T10:57:08;26.48;;;10.52;;
77495;SDS011;66600;48.378;9.948;2023-01-25T10:59:42;35.25;;;12.48;;
77495;SDS011;66600;48.378;9.948;2023-01-25T11:02:20;32.53;;;10.25;;
77495;SDS011;66600;48.378;9.948;2023-01-25T11:07:42;31.42;;;11.10;;
77495;SDS011;66600;48.378;9.948;2023-01-25T11:10:23;32.25;;;11.93;;
77495;SDS011;66600;48.378;9.948;2023-01-25T11:15:42;33.95;;;11.55;;
77495;SDS011;66600;48.378;9.948;2023-01-25T11:18:17;34.70;;;10.85;;
77495;SDS011;66600;48.378;9.948;2023-01-25T11:23:38;31.40;;;12.35;;
77495;SDS011;66600;48.378;9.948;2023-01-25T11:28:40;29.10;;;10.85;;
77495;SDS011;66600;48.378;9.948;2023-01-25T11:31:10;33.08;;;12.52;;
77495;SDS011;66600;48.378;9.948;2023-01-25T11:33:37;41.03;;;16.52;;
77495;SDS011;66600;48.378;9.948;2023-01-25T11:41:49;38.55;;;13.45;;
77495;SDS011;66600;48.378;9.948;2023-01-25T11:50:06;36.10;;;12.60;;
77495;SDS011;66600;48.378;9.948;2023-01-25T11:55:35;42.15;;;15.70;;
77495;SDS011;66600;48.378;9.948;2023-01-25T12:09:26;42.90;;;14.65;;
77495;SDS011;66600;48.378;9.948;2023-01-25T12:12:35;38.28;;;13.20;;
77495;SDS011;66600;48.378;9.948;2023-01-25T12:15:09;42.25;;;13.38;;
77495;SDS011;66600;48.378;9.948;2023-01-25T12:18:01;39.05;;;13.90;;
77495;SDS011;66600;48.378;9.948;2023-01-25T12:23:27;37.15;;;12.52;;
77495;SDS011;66600;48.378;9.948;2023-01-25T12:39:47;30.02;;;11.85;;
77495;SDS011;66600;48.378;9.948;2023-01-25T12:44:50;28.40;;;11.30;;
77495;SDS011;66600;48.378;9.948;2023-01-25T12:49:50;34.10;;;13.25;;
77495;SDS011;66600;48.378;9.948;2023-01-25T12:52:23;39.42;;;15.35;;
77495;SDS011;66600;48.378;9.948;2023-01-25T12:54:55;39.33;;;14.63;;
77495;SDS011;66600;48.378;9.948;2023-01-25T12:57:29;35.45;;;11.68;;
77495;SDS011;66600;48.378;9.948;2023-01-25T13:00:15;38.10;;;13.23;;
77495;SDS011;66600;48.378;9.948;2023-01-25T13:05:45;50.78;;;14.50;;
77495;SDS011;66600;48.378;9.948;2023-01-25T13:11:19;42.63;;;16.10;;
77495;SDS011;66600;48.378;9.948;2023-01-25T13:13:47;42.30;;;13.75;;
77495;SDS011;66600;48.378;9.948;2023-01-25T13:16:24;38.13;;;13.02;;
77495;SDS011;66600;48.378;9.948;2023-01-25T13:18:58;36.63;;;12.88;;
77495;SDS011;66600;48.378;9.948;2023-01-25T13:21:38;34.67;;;12.48;;
77495;SDS011;66600;48.378;9.948;2023-01-25T13:26:50;42.22;;;15.10;;
77495;SDS011;66600;48.378;9.948;2023-01-25T13:29:41;38.22;;;14.15;;
77495;SDS011;66600;48.378;9.948;2023-01-25T13:34:56;42.65;;;13.68;;
77495;SDS011;66600;48.378;9.948;2023-01-25T13:39:53;49.85;;;14.45;;
77495;SDS011;66600;48.378;9.948;2023-01-25T13:44:48;40.85;;;13.68;;
77495;SDS011;66600;48.378;9.948;2023-01-25T13:47:38;37.15;;;12.68;;
77495;SDS011;66600;48.378;9.948;2023-01-25T13:50:07;36.67;;;12.23;;
77495;SDS011;66600;48.378;9.948;2023-01-25T13:52:57;36.28;;;12.20;;
77495;SDS011;66600;48.378;9.948;2023-01-25T13:55:24;41.03;;;13.43;;
77495;SDS011;66600;48.378;9.948;2023-01-25T13:57:50;49.45;;;15.55;;
77495;SDS011;66600;48.378;9.948;2023-01-25T14:00:15;43.08;;;14.18;;
77495;SDS011;66600;48.378;9.948;2023-01-25T14:02:43;45.22;;;15.52;;
77495;SDS011;66600;48.378;9.948;2023-01-25T14:05:16;39.78;;;14.25;;
77495;SDS011;66600;48.378;9.948;2023-01-25T14:07:46;41.28;;;15.80;;
77495;SDS011;66600;48.378;9.948;2023-01-25T14:10:15;40.53;;;14.30;;
77495;SDS011;66600;48.378;9.948;2023-01-25T14:12:43;40.17;;;14.45;;
77495;SDS011;66600;48.378;9.948;2023-01-25T14:17:44;49.22;;;15.23;;
77495;SDS011;66600;48.378;9.948;2023-01-25T14:20:15;44.97;;;16.60;;
77495;SDS011;66600;48.378;9.948;2023-01-25T14:22:48;40.88;;;14.43;;
77495;SDS011;66600;48.378;9.948;2023-01-25T14:25:18;45.83;;;16.52;;
77495;SDS011;66600;48.378;9.948;2023-01-25T14:27:50;45.05;;;14.48;;
77495;SDS011;66600;48.378;9.948;2023-01-25T14:30:19;48.45;;;16.15;;
77495;SDS011;66600;48.378;9.948;2023-01-25T14:32:46;50.45;;;15.57;;
77495;SDS011;66600;48.378;9.948;2023-01-25T14:37:55;51.08;;;15.77;;
77495;SDS011;66600;48.378;9.948;2023-01-25T14:40:21;53.85;;;16.05;;
77495;SDS011;66600;48.378;9.948;2023-01-25T14:42:49;53.50;;;15.35;;
77495;SDS011;66600;48.378;9.948;2023-01-25T14:45:15;62.85;;;18.45;;
77495;SDS011;66600;48.378;9.948;2023-01-25T14:47:41;52.88;;;16.88;;
77495;SDS011;66600;48.378;9.948;2023-01-25T14:52:56;45.03;;;15.38;;
77495;SDS011;66600;48.378;9.948;2023-01-25T14:55:24;49.83;;;14.02;;
77495;SDS011;66600;48.378;9.948;2023-01-25T14:57:50;48.08;;;14.57;;
77495;SDS011;66600;48.378;9.948;2023-01-25T15:00:20;43.03;;;15.45;;
77495;SDS011;66600;48.378;9.948;2023-01-25T15:02:48;50.67;;;16.40;;
77495;SDS011;66600;48.378;9.948;2023-01-25T15:05:21;45.22;;;14.52;;
77495;SDS011;66600;48.378;9.948;2023-01-25T15:07:55;41.85;;;14.02;;
77495;SDS011;66600;48.378;9.948;2023-01-25T15:10:25;45.47;;;14.63;;
77495;SDS011;66600;48.378;9.948;2023-01-25T15:12:55;37.60;;;13.20;;
77495;SDS011;66600;48.378;9.948;2023-01-25T15:15:55;36.92;;;13.23;;
77495;SDS011;66600;48.378;9.948;2023-01-25T15:18:39;38.75;;;15.13;;
77495;SDS011;66600;48.378;9.948;2023-01-25T15:21:15;38.13;;;13.15;;
77495;SDS011;66600;48.378;9.948;2023-01-25T15:23:51;37.05;;;12.90;;
77495;SDS011;66600;48.378;9.948;2023-01-25T15:28:45;36.00;;;13.45;;
77495;SDS011;66600;48.378;9.948;2023-01-25T15:31:20;43.33;;;15.60;;
77495;SDS011;66600;48.378;9.948;2023-01-25T15:33:50;40.10;;;14.20;;
77495;SDS011;66600;48.378;9.948;2023-01-25T15:36:16;37.53;;;15.25;;
77495;SDS011;66600;48.378;9.948;2023-01-25T15:38:42;41.85;;;14.82;;
77495;SDS011;66600;48.378;9.948;2023-01-25T15:41:08;45.70;;;14.25;;
77495;SDS011;66600;48.378;9.948;2023-01-25T15:43:34;40.67;;;14.48;;
77495;SDS011;66600;48.378;9.948;2023-01-25T15:45:59;40.83;;;15.38;;
77495;SDS011;66600;48.378;9.948;2023-01-25T15:48:29;44.95;;;14.38;;
77495;SDS011;66600;48.378;9.948;2023-01-25T15:50:57;47.53;;;14.13;;
77495;SDS011;66600;48.378;9.948;2023-01-25T15:53:22;63.72;;;21.42;;
77495;SDS011;66600;48.378;9.948;2023-01-25T15:55:53;69.90;;;22.92;;
77495;SDS011;66600;48.378;9.948;2023-01-25T15:58:30;48.22;;;15.18;;
77495;SDS011;66600;48.378;9.948;2023-01-25T16:00:59;56.78;;;16.02;;
77495;SDS011;66600;48.378;9.948;2023-01-25T16:03:24;52.40;;;15.52;;
77495;SDS011;66600;48.378;9.948;2023-01-25T16:05:52;59.05;;;19.27;;
77495;SDS011;66600;48.378;9.948;2023-01-25T16:08:39;62.45;;;17.75;;
77495;SDS011;66600;48.378;9.948;2023-01-25T16:11:04;45.25;;;14.25;;
77495;SDS011;66600;48.378;9.948;2023-01-25T16:13:29;54.60;;;16.52;;
77495;SDS011;66600;48.378;9.948;2023-01-25T16:15:54;50.28;;;16.85;;
77495;SDS011;66600;48.378;9.948;2023-01-25T16:18:21;52.10;;;16.73;;
77495;SDS011;66600;48.378;9.948;2023-01-25T16:20:46;52.03;;;15.98;;
77495;SDS011;66600;48.378;9.948;2023-01-25T16:23:11;52.28;;;16.42;;
77495;SDS011;66600;48.378;9.948;2023-01-25T16:25:40;45.80;;;16.25;;